Time;durP1;ratioP1;P1;durP2;ratioP2;P2;SDS_P1;SDS_P2;PMS_P1;PMS_P2;Temp;Humidity;BMP_temperature;BMP_pressure;BME280_temperature;BME280_humidity;BME280_pressure;Samples;Min_cycle;Max_cycle;Signal;HPM_P1;HPM_P2
2022/08/20 00:00:38;;;;;;;;;5.00;5.00;;;;;18.81;73.32;100830.47;5016492;28;45772;-72
2022/08/20 00:03:09;;;;;;;;;6.00;5.33;;;;;18.86;72.98;100833.13;5032723;28;45328;-73
2022/08/20 00:05:39;;;;;;;;;8.33;6.00;;;;;18.70;73.14;100805.72;5017507;28;45302;-72
2022/08/20 00:08:06;;;;;;;;;9.33;5.67;;;;;18.76;73.63;100823.38;5015472;28;46358;-72
2022/08/20 00:10:35;;;;;;;;;5.00;5.00;;;;;18.68;73.71;100816.34;5016818;28;45316;-73
2022/08/20 00:13:01;;;;;;;;;7.00;7.00;;;;;18.60;74.43;100814.53;5015964;28;45500;-73
2022/08/20 00:15:32;;;;;;;;;8.00;6.00;;;;;18.56;74.74;100812.78;5017357;28;45369;-72
2022/08/20 00:17:58;;;;;;;;;8.67;7.67;;;;;18.48;75.63;100810.09;5016826;28;45486;-73
2022/08/20 00:20:28;;;;;;;;;6.67;6.67;;;;;18.35;74.90;100793.34;5017000;28;45526;-72
2022/08/20 00:22:55;;;;;;;;;7.00;6.33;;;;;18.27;75.55;100789.81;5017517;28;45453;-73
2022/08/20 00:25:22;;;;;;;;;6.67;6.67;;;;;18.28;75.28;100805.69;5017116;28;45399;-73
2022/08/20 00:27:47;;;;;;;;;6.33;6.33;;;;;18.25;75.45;100815.38;5016923;28;45680;-72
2022/08/20 00:30:14;;;;;;;;;10.00;7.00;;;;;18.06;75.54;100780.03;5016807;28;45398;-73
2022/08/20 00:32:44;;;;;;;;;7.00;7.00;;;;;17.99;76.01;100771.22;5017200;28;45429;-72
2022/08/20 00:35:11;;;;;;;;;7.33;6.33;;;;;18.20;76.14;100809.16;5017010;28;45474;-73
2022/08/20 00:37:36;;;;;;;;;8.33;7.00;;;;;18.20;76.17;100803.88;5016329;28;45669;-73
2022/08/20 00:40:05;;;;;;;;;9.67;9.00;;;;;18.05;76.84;100780.94;5015108;28;45567;-73
2022/08/20 00:42:40;;;;;;;;;8.67;7.67;;;;;18.09;76.49;100790.66;5016820;28;45502;-72
2022/08/20 00:45:06;;;;;;;;;8.00;7.00;;;;;17.99;76.30;100758.00;5017029;28;45296;-72
2022/08/20 00:47:32;;;;;;;;;6.33;6.00;;;;;18.29;76.38;100793.34;5016566;28;45434;-72
2022/08/20 00:49:58;;;;;;;;;6.33;6.33;;;;;18.39;75.68;100791.59;5016891;28;45384;-72
2022/08/20 00:52:23;;;;;;;;;9.33;7.00;;;;;18.38;75.63;100777.50;5016814;28;45406;-72
2022/08/20 00:54:53;;;;;;;;;8.67;8.00;;;;;18.55;75.79;100796.03;5017131;28;45445;-73
2022/08/20 00:57:36;;;;;;;;;6.00;6.00;;;;;18.53;75.68;100783.69;5014880;28;46496;-72
2022/08/20 01:00:12;;;;;;;;;6.00;5.33;;;;;18.39;75.21;100763.38;5019318;28;45538;-72
2022/08/20 01:02:38;;;;;;;;;5.33;5.33;;;;;18.43;74.92;100770.44;5018822;28;45417;-73
2022/08/20 01:05:04;;;;;;;;;8.67;7.00;;;;;18.53;74.68;100781.91;5020266;28;45458;-73
2022/08/20 01:07:36;;;;;;;;;5.67;5.00;;;;;18.27;75.01;100737.78;5018458;28;47602;-73
2022/08/20 01:10:10;;;;;;;;;4.67;4.67;;;;;18.68;74.90;100795.16;5019935;28;45390;-72
2022/08/20 01:12:37;;;;;;;;;5.67;5.67;;;;;18.78;74.44;100796.06;5018592;28;45309;-72
2022/08/20 01:15:07;;;;;;;;;8.00;6.67;;;;;18.84;74.26;100788.16;5018548;28;45508;-73
2022/08/20 01:17:36;;;;;;;;;4.33;4.33;;;;;18.64;74.58;100761.66;5019222;28;46398;-73
2022/08/20 01:20:12;;;;;;;;;5.33;5.33;;;;;18.93;74.02;100794.31;5019392;28;45492;-73
2022/08/20 01:25:51;;;;;;;;;6.67;6.67;;;;;18.93;74.91;100773.13;5018778;28;45633;-72
2022/08/20 01:28:24;;;;;;;;;6.33;5.67;;;;;19.00;74.81;100782.81;5019200;28;45482;-72
2022/08/20 01:30:50;;;;;;;;;7.33;6.00;;;;;19.02;75.16;100778.41;5018334;28;45503;-73
2022/08/20 01:33:20;;;;;;;;;9.00;6.00;;;;;18.98;74.45;100761.66;5034593;28;46023;-73
2022/08/20 01:35:46;;;;;;;;;6.00;5.00;;;;;19.06;74.63;100767.84;5019582;28;45408;-73
2022/08/20 01:38:12;;;;;;;;;5.00;4.00;;;;;18.98;74.60;100747.53;5017916;28;46562;-72
2022/08/20 01:40:57;;;;;;;;;6.67;5.33;;;;;19.27;74.81;100784.56;5019415;28;45394;-73
2022/08/20 01:43:23;;;;;;;;;7.00;5.67;;;;;19.19;74.39;100760.72;5019510;28;45466;-81
2022/08/20 01:45:50;;;;;;;;;5.67;5.67;;;;;19.34;74.26;100778.38;5019460;28;45237;-72
2022/08/20 01:48:16;;;;;;;;;6.00;6.00;;;;;19.08;73.96;100739.59;5034305;28;46790;-73
2022/08/20 01:51:01;;;;;;;;;5.00;5.00;;;;;19.19;73.90;100773.09;5018946;28;45367;-72
2022/08/20 01:53:43;;;;;;;;;6.00;5.33;;;;;18.94;74.44;100746.66;5019344;28;45442;-73
2022/08/20 01:56:14;;;;;;;;;6.67;6.00;;;;;18.97;74.39;100745.78;5019264;28;45466;-72
2022/08/20 01:58:43;;;;;;;;;5.00;4.00;;;;;19.01;74.80;100743.09;5018866;28;46142;-73
2022/08/20 02:01:44;;;;;;;;;5.33;5.00;;;;;19.10;74.76;100762.50;5017292;28;45374;-73
2022/08/20 02:04:10;;;;;;;;;5.00;5.00;;;;;19.16;74.83;100766.06;5017700;28;45442;-72
2022/08/20 02:06:41;;;;;;;;;6.00;5.33;;;;;19.04;74.69;100739.59;5019145;28;45286;-73
2022/08/20 02:09:08;;;;;;;;;6.00;6.00;;;;;19.25;74.84;100763.38;5018563;28;45435;-73
2022/08/20 02:11:34;;;;;;;;;4.67;4.67;;;;;19.30;74.58;100766.03;5017598;28;45340;-73
2022/08/20 02:14:01;;;;;;;;;5.00;4.00;;;;;19.29;75.10;100764.25;5017679;28;45533;-73
2022/08/20 02:16:30;;;;;;;;;6.00;5.33;;;;;19.30;75.13;100759.81;5019078;28;45279;-73
2022/08/20 02:19:08;;;;;;;;;5.67;5.00;;;;;19.20;75.16;100736.03;5017233;28;46804;-72
2022/08/20 02:21:36;;;;;;;;;6.00;5.33;;;;;19.32;75.20;100751.00;5017626;28;45725;-73
2022/08/20 02:24:03;;;;;;;;;6.00;5.33;;;;;19.09;75.27;100716.63;5019097;28;45304;-72
2022/08/20 02:26:29;;;;;;;;;5.33;4.00;;;;;19.26;74.97;100743.09;5017703;28;45589;-72
2022/08/20 02:28:55;;;;;;;;;3.67;3.67;;;;;19.26;75.26;100749.25;5016277;28;45382;-73
2022/08/20 02:31:22;;;;;;;;;5.00;4.00;;;;;19.15;75.59;100724.56;5014312;28;45231;-72
2022/08/20 02:33:48;;;;;;;;;6.00;6.00;;;;;19.19;75.93;100734.25;5016996;28;45477;-72
2022/08/20 02:36:16;;;;;;;;;6.00;5.00;;;;;19.20;76.23;100743.06;5017113;28;45507;-72
2022/08/20 02:38:43;;;;;;;;;6.67;5.67;;;;;19.29;75.67;100751.00;5014068;28;45529;-72
2022/08/20 02:41:11;;;;;;;;;4.00;4.00;;;;;19.35;75.78;100744.81;5016644;28;45563;-73
2022/08/20 02:43:36;;;;;;;;;3.33;3.33;;;;;19.07;74.90;100702.50;5016585;28;45236;-73
2022/08/20 02:46:03;;;;;;;;;3.67;3.00;;;;;19.14;75.15;100728.09;5017268;28;45383;-73
2022/08/20 02:48:30;;;;;;;;;6.00;5.33;;;;;19.18;75.54;100745.75;5016574;28;46113;-80
2022/08/20 02:51:01;;;;;;;;;5.33;4.67;;;;;19.19;75.60;100744.84;5016535;28;45477;-73
2022/08/20 02:53:28;;;;;;;;;5.00;5.00;;;;;19.20;75.50;100741.31;5013441;28;45229;-72
2022/08/20 02:55:55;;;;;;;;;6.00;5.00;;;;;19.09;75.29;100721.91;5017049;28;45497;-73
2022/08/20 02:58:21;;;;;;;;;6.67;6.00;;;;;19.16;75.53;100721.03;5016323;28;45486;-72
2022/08/20 03:00:48;;;;;;;;;5.00;4.33;;;;;19.35;75.11;100744.81;5013359;28;45498;-72
2022/08/20 03:03:15;;;;;;;;;7.67;7.67;;;;;19.31;75.21;100727.16;5016545;28;45526;-73
2022/08/20 03:05:43;;;;;;;;;5.33;5.33;;;;;19.29;75.49;100721.88;5013896;28;45451;-72
2022/08/20 03:08:10;;;;;;;;;6.00;5.00;;;;;18.79;75.55;100632.84;5016306;28;45582;-72
2022/08/20 03:10:38;;;;;;;;;5.00;5.00;;;;;19.42;75.19;100741.28;5014402;28;45541;-72
2022/08/20 03:13:10;;;;;;;;;4.00;4.00;;;;;19.45;75.20;100744.75;5016611;28;45319;-72
2022/08/20 03:15:35;;;;;;;;;4.00;4.00;;;;;19.45;75.43;100744.75;5016455;28;45414;-73
2022/08/20 03:18:03;;;;;;;;;5.00;5.00;;;;;19.33;75.48;100723.63;5013461;28;45561;-73
2022/08/20 03:20:30;;;;;;;;;5.00;5.00;;;;;19.17;75.50;100701.59;5015365;28;45561;-73
2022/08/20 03:22:56;;;;;;;;;6.00;5.33;;;;;19.28;75.32;100721.00;5015764;28;45506;-73
2022/08/20 03:25:22;;;;;;;;;5.67;4.67;;;;;19.35;75.28;100729.78;5013819;28;45430;-72
2022/08/20 03:27:48;;;;;;;;;6.00;6.00;;;;;19.27;75.54;100721.00;5015829;28;46267;-73
2022/08/20 03:30:15;;;;;;;;;5.33;5.00;;;;;19.23;75.87;100725.41;5015907;28;45537;-73
2022/08/20 03:32:42;;;;;;;;;4.00;4.00;;;;;19.17;76.19;100717.47;5015997;28;45533;-73
2022/08/20 03:35:10;;;;;;;;;5.00;5.00;;;;;19.24;76.12;100729.84;5016246;28;45562;-72
2022/08/20 03:37:37;;;;;;;;;4.00;3.67;;;;;19.22;76.50;100726.31;5015890;28;45335;-73
2022/08/20 03:40:06;;;;;;;;;5.33;4.00;;;;;18.72;76.06;100641.66;5013588;28;45360;-78
2022/08/20 03:42:31;;;;;;;;;6.00;6.00;;;;;19.14;75.95;100712.22;5016365;28;45833;-73
2022/08/20 03:44:57;;;;;;;;;5.33;4.00;;;;;19.12;76.53;100716.63;5015972;28;45491;-73
2022/08/20 03:47:22;;;;;;;;;5.00;4.33;;;;;19.13;77.60;100728.97;5015692;28;45664;-73
2022/08/20 03:49:49;;;;;;;;;5.00;5.00;;;;;19.00;77.18;100716.63;5015591;28;45500;-72
2022/08/20 03:52:16;;;;;;;;;3.67;3.67;;;;;18.86;77.23;100682.25;5015822;28;45503;-72
2022/08/20 03:54:44;;;;;;;;;5.00;4.67;;;;;19.03;76.85;100716.63;5010301;28;45610;-73
2022/08/20 03:57:13;;;;;;;;;3.00;3.00;;;;;18.96;76.60;100696.34;5015508;28;45813;-73
2022/08/20 03:59:39;;;;;;;;;7.33;6.00;;;;;18.82;76.88;100697.28;5015666;28;45378;-72
2022/08/20 04:02:05;;;;;;;;;4.67;4.00;;;;;18.38;77.31;100624.09;5015762;28;45469;-73
2022/08/20 04:04:31;;;;;;;;;4.67;4.67;;;;;18.82;77.16;100699.91;5015993;28;45425;-73
2022/08/20 04:06:57;;;;;;;;;5.00;4.00;;;;;18.85;77.25;100709.63;5015421;28;46629;-72
2022/08/20 04:09:23;;;;;;;;;5.00;5.00;;;;;18.82;77.52;100702.56;5015483;28;45213;-72
2022/08/20 04:11:48;;;;;;;;;3.33;3.33;;;;;18.58;77.33;100658.47;5015657;28;45457;-72
2022/08/20 04:14:14;;;;;;;;;6.00;6.00;;;;;18.79;77.56;100693.72;5015680;28;45288;-73
2022/08/20 04:16:40;;;;;;;;;5.67;5.67;;;;;18.87;77.54;100705.19;5013552;28;46456;-72
2022/08/20 04:19:06;;;;;;;;;4.67;4.67;;;;;18.88;78.04;100714.91;5015502;28;45493;-72
2022/08/20 04:21:34;;;;;;;;;5.00;4.67;;;;;18.85;77.77;100713.13;5014636;28;45846;-72
2022/08/20 04:24:01;;;;;;;;;7.67;5.67;;;;;18.64;77.56;100674.34;5015216;28;45569;-72
2022/08/20 04:26:27;;;;;;;;;5.33;4.33;;;;;18.92;77.26;100723.72;5015052;28;46058;-73
2022/08/20 04:28:54;;;;;;;;;4.67;4.00;;;;;18.59;77.19;100668.16;5013425;28;45571;-73
2022/08/20 04:31:23;;;;;;;;;4.67;4.67;;;;;18.88;77.01;100714.91;5013693;28;45575;-72
2022/08/20 04:33:49;;;;;;;;;4.00;3.67;;;;;18.62;76.99;100678.75;5018256;28;45494;-72
2022/08/20 04:36:14;;;;;;;;;6.33;4.67;;;;;18.74;77.02;100698.13;5018619;28;46014;-72
2022/08/20 04:38:40;;;;;;;;;7.00;5.00;;;;;18.86;77.23;100725.50;5017238;28;45417;-72
2022/08/20 04:41:06;;;;;;;;;4.67;4.00;;;;;18.69;77.36;100706.94;5017501;28;45440;-72
2022/08/20 04:43:36;;;;;;;;;8.33;5.67;;;;;18.69;77.61;100720.16;5017764;28;45415;-72
2022/08/20 04:46:08;;;;;;;;;6.67;5.67;;;;;18.57;77.62;100725.47;5016444;28;46592;-73
2022/08/20 04:48:37;;;;;;;;;5.00;4.00;;;;;18.54;77.59;100720.16;5018823;28;45370;-72
2022/08/20 04:51:04;;;;;;;;;4.00;4.00;;;;;18.57;77.92;100722.81;5031576;28;45406;-73
2022/08/20 04:53:30;;;;;;;;;5.00;4.33;;;;;18.38;77.86;100694.59;5018309;28;45679;-72
2022/08/20 04:55:58;;;;;;;;;6.00;5.67;;;;;18.42;78.15;100714.88;5018355;28;45973;-73
2022/08/20 04:58:29;;;;;;;;;4.67;4.33;;;;;18.20;78.05;100677.84;5031292;28;45276;-72
2022/08/20 05:00:58;;;;;;;;;5.00;4.00;;;;;18.42;77.19;100718.44;5018468;28;45501;-72
2022/08/20 05:03:25;;;;;;;;;4.67;4.67;;;;;18.46;77.40;100736.06;5017289;28;45574;-72
2022/08/20 05:05:51;;;;;;;;;6.00;5.00;;;;;18.43;77.63;100738.69;5017923;28;45489;-73
2022/08/20 05:08:19;;;;;;;;;4.33;4.33;;;;;18.23;77.68;100701.66;5033593;28;45446;-73
2022/08/20 05:10:45;;;;;;;;;5.67;4.67;;;;;18.42;77.48;100736.94;5015878;28;45303;-72
2022/08/20 05:13:11;;;;;;;;;7.67;5.00;;;;;18.43;77.82;100732.53;5018334;28;45370;-72
2022/08/20 05:15:37;;;;;;;;;4.67;4.67;;;;;18.42;77.34;100731.66;5018445;28;46386;-72
2022/08/20 05:18:06;;;;;;;;;4.33;4.33;;;;;18.07;77.10;100668.16;5015794;28;45252;-72
2022/08/20 05:20:38;;;;;;;;;4.67;4.00;;;;;18.38;77.03;100719.31;5018577;28;45396;-74
2022/08/20 05:23:07;;;;;;;;;4.33;4.33;;;;;18.37;76.98;100725.47;5016037;28;45295;-72
2022/08/20 05:25:33;;;;;;;;;4.67;4.67;;;;;18.25;77.48;100710.47;5018266;28;45650;-72
2022/08/20 05:28:08;;;;;;;;;4.33;4.33;;;;;18.08;77.95;100694.59;5017643;28;45487;-72
2022/08/20 05:30:38;;;;;;;;;6.33;5.00;;;;;18.00;78.20;100696.31;5018382;28;45510;-73
2022/08/20 05:33:05;;;;;;;;;5.00;4.33;;;;;18.03;78.53;100709.56;5017033;28;45453;-72
2022/08/20 05:35:37;;;;;;;;;5.00;4.33;;;;;18.17;79.00;100729.84;5019382;28;46235;-73
2022/08/20 05:38:05;;;;;;;;;5.67;4.33;;;;;18.08;78.55;100705.16;5018239;28;45506;-73
2022/08/20 05:40:31;;;;;;;;;5.67;5.33;;;;;18.26;78.28;100727.22;5019509;28;45542;-72
2022/08/20 05:42:56;;;;;;;;;5.67;5.33;;;;;18.22;78.04;100713.13;5018328;28;45260;-72
2022/08/20 05:45:22;;;;;;;;;4.67;4.67;;;;;18.34;78.10;100722.81;5017076;28;47708;-80
2022/08/20 05:47:48;;;;;;;;;5.67;3.67;;;;;18.16;77.79;100684.00;5017259;28;45455;-80
2022/08/20 05:50:16;;;;;;;;;5.33;5.00;;;;;18.48;77.29;100725.47;5017512;28;45411;-80
2022/08/20 05:52:42;;;;;;;;;4.67;4.67;;;;;18.43;77.85;100709.59;5016835;28;45617;-81
2022/08/20 05:55:12;;;;;;;;;5.00;5.00;;;;;18.46;77.83;100721.94;5017035;28;46114;-80
2022/08/20 05:57:38;;;;;;;;;8.00;5.67;;;;;18.49;77.37;100717.53;5014687;28;45478;-79
2022/08/20 06:00:07;;;;;;;;;5.67;4.00;;;;;18.44;77.17;100702.53;5017776;28;45422;-72
2022/08/20 06:05:18;;;;;;;;;6.67;5.33;;;;;18.75;76.66;100713.13;5017115;28;45702;-77
2022/08/20 06:07:44;;;;;;;;;6.00;5.33;;;;;18.80;76.31;100701.69;5017774;28;45609;-73
2022/08/20 06:10:10;;;;;;;;;7.67;4.67;;;;;19.04;75.28;100721.06;5018399;28;45389;-73
2022/08/20 06:12:37;;;;;;;;;6.33;4.33;;;;;19.21;74.60;100723.66;5018885;28;45379;-72
2022/08/20 06:15:04;;;;;;;;;4.33;4.33;;;;;19.27;74.24;100713.91;5018988;28;45503;-73
2022/08/20 06:17:32;;;;;;;;;5.67;4.33;;;;;19.36;73.53;100696.22;5018495;28;45466;-73
2022/08/20 06:20:02;;;;;;;;;4.00;3.00;;;;;19.54;73.40;100704.13;5018290;28;45495;-72
2022/08/20 06:22:28;;;;;;;;;3.67;3.67;;;;;19.77;72.53;100706.69;5018964;28;45645;-74
2022/08/20 06:24:53;;;;;;;;;4.00;3.00;;;;;20.23;71.24;100711.72;5010218;28;45589;-73
2022/08/20 06:27:20;;;;;;;;;7.33;7.00;;;;;19.98;70.54;100627.91;5013113;28;45502;-75
2022/08/20 06:29:46;;;;;;;;;5.00;5.00;;;;;20.70;69.37;100709.59;5009887;28;45511;-74
2022/08/20 06:32:12;;;;;;;;;4.00;4.00;;;;;20.70;69.42;100684.81;5014996;28;45493;-76
2022/08/20 06:34:38;;;;;;;;;7.00;5.00;;;;;20.88;69.20;100705.00;5012785;28;45491;-76
2022/08/20 06:37:16;;;;;;;;;4.00;4.00;;;;;21.01;68.63;100704.00;5006970;28;45458;-77
2022/08/20 06:39:42;;;;;;;;;5.00;5.00;;;;;21.80;67.90;100686.19;5003547;28;45478;-77
2022/08/20 06:42:08;;;;;;;;;4.00;3.67;;;;;25.06;59.51;100704.50;5011150;28;45453;-77
2022/08/20 06:44:33;;;;;;;;;5.33;4.00;;;;;27.46;51.36;100684.28;5004063;28;45490;-76
2022/08/20 06:47:00;;;;;;;;;5.67;5.33;;;;;29.13;45.70;100699.88;5003860;28;45655;-75
2022/08/20 06:49:25;;;;;;;;;4.00;4.00;;;;;30.47;45.68;100704.34;5014957;28;45402;-76
2022/08/20 06:51:51;;;;;;;;;3.33;3.33;;;;;31.63;41.99;100691.91;5011759;28;45625;-75
2022/08/20 06:54:16;;;;;;;;;5.00;4.67;;;;;32.62;39.59;100687.19;5012613;28;46559;-74
2022/08/20 06:56:43;;;;;;;;;4.00;4.00;;;;;33.47;37.05;100684.69;5011047;28;45483;-76
2022/08/20 06:59:08;;;;;;;;;5.00;4.33;;;;;34.18;35.89;100694.56;5011742;28;45493;-76
2022/08/20 07:01:34;;;;;;;;;4.33;4.00;;;;;34.84;36.92;100684.66;5009171;28;45892;-75
2022/08/20 07:04:00;;;;;;;;;5.67;3.67;;;;;34.71;34.50;100629.50;5026356;28;45519;-76
2022/08/20 07:06:26;;;;;;;;;4.00;4.00;;;;;35.83;33.13;100688.53;5015969;28;45501;-74
2022/08/20 07:08:53;;;;;;;;;3.67;3.67;;;;;35.92;33.47;100687.00;5011441;28;45499;-76
2022/08/20 07:11:19;;;;;;;;;4.67;4.00;;;;;36.66;31.79;100695.06;5013250;28;45531;-73
2022/08/20 07:13:47;;;;;;;;;3.00;3.00;;;;;37.31;31.42;100680.84;5012071;28;45965;-77
2022/08/20 07:16:14;;;;;;;;;3.67;3.67;;;;;35.69;33.09;100673.22;5010183;28;45446;-77
2022/08/20 07:18:39;;;;;;;;;4.00;4.00;;;;;33.76;35.73;100673.84;5013034;28;45714;-74
2022/08/20 07:21:05;;;;;;;;;3.00;3.00;;;;;32.11;39.53;100689.25;5028715;28;45519;-79
2022/08/20 07:23:31;;;;;;;;;4.67;4.67;;;;;30.88;41.51;100690.56;5007822;28;46876;-76
2022/08/20 07:25:57;;;;;;;;;3.33;2.00;;;;;29.90;43.52;100689.13;5014519;28;45488;-74
2022/08/20 07:28:27;;;;;;;;;4.33;3.67;;;;;29.16;45.09;100675.50;5009718;28;45472;-79
2022/08/20 07:33:39;;;;;;;;;5.33;4.33;;;;;28.10;47.18;100698.81;5015599;28;45411;-73
2022/08/20 07:36:05;;;;;;;;;2.67;2.67;;;;;28.63;47.16;100705.59;5009300;28;45471;-79
2022/08/20 07:38:31;;;;;;;;;5.00;4.00;;;;;32.01;41.50;100685.34;5006718;28;45488;-74
2022/08/20 07:41:04;;;;;;;;;5.67;5.00;;;;;34.98;35.87;100693.69;5003787;28;45730;-75
2022/08/20 07:43:30;;;;;;;;;4.00;4.00;;;;;35.37;34.70;100691.84;5009402;28;46957;-74
2022/08/20 07:46:00;;;;;;;;;3.67;3.33;;;;;36.16;33.68;100696.03;5011451;28;45840;-76
2022/08/20 07:48:29;;;;;;;;;3.00;2.00;;;;;35.98;32.92;100691.97;5015214;28;45466;-73
2022/08/20 07:51:02;;;;;;;;;4.00;3.67;;;;;37.80;30.44;100679.59;5012509;28;46196;-74
2022/08/20 07:53:28;;;;;;;;;4.00;3.33;;;;;38.88;28.58;100689.59;5012188;28;45518;-73
2022/08/20 07:55:54;;;;;;;;;2.67;2.00;;;;;37.57;30.56;100667.81;5020803;28;45505;-74
2022/08/20 07:58:24;;;;;;;;;2.67;2.00;;;;;38.86;28.13;100690.72;5018706;28;45545;-73
2022/08/20 08:00:50;;;;;;;;;3.00;3.00;;;;;39.96;26.32;100682.78;5014016;28;45483;-73
2022/08/20 08:03:16;;;;;;;;;3.67;3.00;;;;;41.02;25.95;100669.19;5007378;28;45518;-75
2022/08/20 08:05:47;;;;;;;;;3.67;3.67;;;;;41.89;24.22;100673.44;5013997;28;45977;-74
2022/08/20 08:08:18;;;;;;;;;3.67;3.00;;;;;42.06;23.98;100641.56;5007710;28;45574;-73
2022/08/20 08:10:47;;;;;;;;;2.00;1.00;;;;;42.93;22.67;100670.13;5014256;28;45638;-74
2022/08/20 08:13:13;;;;;;;;;4.33;4.00;;;;;42.71;23.40;100658.59;5009062;28;45492;-74
2022/08/20 08:15:45;;;;;;;;;3.33;3.33;;;;;42.72;22.76;100663.09;5014210;28;45484;-76
2022/08/20 08:18:17;;;;;;;;;5.00;4.33;;;;;41.82;24.16;100673.19;5042476;28;46678;-72
2022/08/20 08:20:43;;;;;;;;;3.00;3.00;;;;;43.10;23.75;100660.94;5008378;28;45705;-79
2022/08/20 08:23:11;;;;;;;;;4.00;3.67;;;;;43.62;23.23;100668.25;5009938;28;47818;-77
2022/08/20 08:25:42;;;;;;;;;4.67;3.67;;;;;44.33;22.13;100666.03;5009690;28;45459;-74
2022/08/20 08:28:10;;;;;;;;;4.00;4.00;;;;;44.40;22.00;100667.06;5032583;28;45508;-74
2022/08/20 08:30:39;;;;;;;;;6.33;5.00;;;;;43.97;22.42;100674.56;5015251;28;45508;-75
2022/08/20 08:35:50;;;;;;;;;6.00;6.00;;;;;42.12;24.88;100652.78;5006584;28;45493;-76
2022/08/20 08:38:16;;;;;;;;;7.00;6.33;;;;;43.63;23.94;100666.34;5026350;28;45796;-76
2022/08/20 08:40:42;;;;;;;;;6.00;6.00;;;;;43.92;22.93;100673.34;5011396;28;45502;-74
2022/08/20 08:43:13;;;;;;;;;7.00;6.33;;;;;43.95;23.01;100675.75;5013065;28;46680;-73
2022/08/20 08:45:44;;;;;;;;;6.33;6.00;;;;;43.86;22.92;100677.66;5012362;28;45481;-74
2022/08/20 08:48:16;;;;;;;;;4.33;4.33;;;;;43.82;23.73;100677.13;5002829;28;45409;-76
2022/08/20 08:50:45;;;;;;;;;6.00;5.67;;;;;43.88;22.89;100665.44;5013459;28;45503;-75
2022/08/20 08:53:20;;;;;;;;;7.00;6.00;;;;;43.65;23.13;100654.16;5011398;28;45982;-74
2022/08/20 08:55:46;;;;;;;;;6.00;5.00;;;;;43.27;24.45;100663.81;5007537;28;45534;-78
2022/08/20 08:58:12;;;;;;;;;6.00;6.00;;;;;42.97;24.16;100648.69;5016635;28;45583;-76
2022/08/20 09:00:38;;;;;;;;;6.33;5.33;;;;;43.10;24.46;100640.88;5027944;28;45572;-76
2022/08/20 09:03:16;;;;;;;;;5.67;5.67;;;;;43.15;23.78;100648.59;5024991;28;46437;-75
2022/08/20 09:05:51;;;;;;;;;6.00;6.00;;;;;43.22;24.01;100672.53;5024657;28;45410;-76
2022/08/20 09:08:23;;;;;;;;;6.00;5.00;;;;;43.48;23.21;100657.91;5027184;28;45526;-76
2022/08/20 09:10:49;;;;;;;;;9.00;8.67;;;;;43.35;23.80;100672.09;5010423;28;45418;-77
2022/08/20 09:13:14;;;;;;;;;9.00;9.00;;;;;42.84;24.26;100663.69;5022872;28;46276;-77
2022/08/20 09:15:40;;;;;;;;;8.33;7.67;;;;;42.77;25.13;100670.00;5025083;28;45386;-75
2022/08/20 09:18:06;;;;;;;;;27.75;26.50;;;;;42.45;25.15;100655.00;5000123;28;45527;-77
2022/08/20 09:20:32;;;;;;;;;9.00;9.00;;;;;41.83;25.65;100650.22;5005189;28;45510;-75
2022/08/20 09:22:57;;;;;;;;;11.33;10.33;;;;;41.24;25.88;100665.25;5013495;28;45504;-75
2022/08/20 09:25:24;;;;;;;;;8.00;8.00;;;;;40.43;27.27;100668.41;5014179;28;45359;-76
2022/08/20 09:27:49;;;;;;;;;8.67;8.67;;;;;39.41;28.03;100650.31;5016578;28;45570;-75
2022/08/20 09:30:16;;;;;;;;;8.67;8.67;;;;;40.16;28.31;100659.88;5013089;28;45572;-75
2022/08/20 09:32:42;;;;;;;;;9.67;8.33;;;;;39.72;28.42;100664.84;5009049;28;46598;-75
2022/08/20 09:35:09;;;;;;;;;8.00;8.00;;;;;38.75;29.05;100646.09;5011061;28;45508;-75
2022/08/20 09:37:35;;;;;;;;;9.00;9.00;;;;;38.24;30.23;100652.28;5030926;28;45512;-77
2022/08/20 09:40:01;;;;;;;;;8.67;8.67;;;;;37.96;30.31;100659.19;5016934;28;45443;-75
2022/08/20 09:42:30;;;;;;;;;9.00;7.67;;;;;37.32;31.21;100668.94;5021066;28;47597;-76
2022/08/20 09:44:57;;;;;;;;;9.33;9.33;;;;;37.15;31.91;100662.13;4999864;28;46049;-76
2022/08/20 09:47:24;;;;;;;;;12.00;11.00;;;;;36.51;32.64;100673.47;5004054;28;45491;-72
2022/08/20 09:49:49;;;;;;;;;7.67;7.67;;;;;36.37;33.08;100660.91;5008992;28;45549;-75
2022/08/20 09:52:32;;;;;;;;;11.00;10.33;;;;;36.04;33.61;100669.75;5011776;28;45591;-72
2022/08/20 09:55:01;;;;;;;;;11.33;10.33;;;;;35.82;33.69;100671.34;5001708;28;45523;-74
2022/08/20 09:57:29;;;;;;;;;8.67;8.67;;;;;35.53;33.86;100657.16;5008034;28;45494;-77
2022/08/20 09:59:59;;;;;;;;;9.33;9.33;;;;;35.04;34.68;100664.25;5012454;28;46120;-74
2022/08/20 10:02:25;;;;;;;;;11.67;11.67;;;;;36.09;33.71;100659.38;5006688;28;46206;-75
2022/08/20 10:04:51;;;;;;;;;10.00;9.67;;;;;35.97;33.67;100668.47;5017303;28;45521;-78
2022/08/20 10:07:17;;;;;;;;;11.00;9.00;;;;;36.04;33.46;100667.91;5016767;28;45430;-78
2022/08/20 10:09:42;;;;;;;;;7.67;7.33;;;;;36.95;32.50;100649.22;5016803;28;45542;-76
2022/08/20 10:12:08;;;;;;;;;8.67;8.00;;;;;37.11;31.55;100648.84;5014114;28;45438;-75
2022/08/20 10:14:34;;;;;;;;;9.67;9.33;;;;;36.37;33.38;100665.47;5009051;28;45419;-77
2022/08/20 10:17:01;;;;;;;;;8.67;8.33;;;;;36.08;33.42;100660.38;5011863;28;45487;-74
2022/08/20 10:19:29;;;;;;;;;9.00;8.67;;;;;36.41;33.61;100650.63;5016703;28;45502;-74
2022/08/20 10:21:55;;;;;;;;;9.33;8.33;;;;;37.76;31.87;100656.28;5010979;28;46136;-76
2022/08/20 10:24:21;;;;;;;;;12.00;11.67;;;;;38.55;30.83;100653.28;5016773;28;45464;-75
2022/08/20 10:26:48;;;;;;;;;8.00;8.00;;;;;39.07;29.79;100644.28;5015995;28;45431;-76
2022/08/20 10:29:13;;;;;;;;;9.00;9.00;;;;;38.32;30.08;100641.63;5017740;28;45417;-72
2022/08/20 10:31:39;;;;;;;;;11.67;11.00;;;;;38.35;30.29;100624.09;5014474;28;45443;-72
2022/08/20 10:34:05;;;;;;;;;8.33;7.00;;;;;38.30;30.66;100626.34;5016363;28;45315;-75
2022/08/20 10:36:31;;;;;;;;;9.33;8.67;;;;;38.69;30.02;100623.94;5028692;28;45955;-73
2022/08/20 10:38:56;;;;;;;;;9.33;9.00;;;;;38.19;30.84;100600.88;5026613;28;45430;-72
2022/08/20 10:41:22;;;;;;;;;8.00;8.00;;;;;38.64;30.41;100602.50;5025395;28;45472;-76
2022/08/20 10:43:49;;;;;;;;;9.00;8.00;;;;;39.18;30.20;100611.44;5024895;28;45383;-72
2022/08/20 10:46:15;;;;;;;;;9.00;8.33;;;;;39.43;28.93;100612.81;5027355;28;45601;-76
2022/08/20 10:48:41;;;;;;;;;9.00;9.00;;;;;39.19;28.73;100588.53;5028286;28;45300;-73
2022/08/20 10:51:07;;;;;;;;;9.67;8.67;;;;;38.90;29.94;100613.84;5019473;28;45374;-72
2022/08/20 10:53:32;;;;;;;;;7.67;7.33;;;;;38.18;29.95;100595.53;5006310;28;45428;-75
2022/08/20 10:55:58;;;;;;;;;8.00;8.00;;;;;37.64;31.16;100570.06;5007416;28;45462;-78
2022/08/20 10:58:24;;;;;;;;;8.00;8.00;;;;;37.47;31.64;100578.78;5013344;28;45398;-73
2022/08/20 11:00:51;;;;;;;;;8.00;7.33;;;;;37.06;32.04;100592.00;5008599;28;45399;-73
2022/08/20 11:03:17;;;;;;;;;8.00;7.67;;;;;36.88;32.86;100583.47;5012423;28;45369;-74
2022/08/20 11:05:42;;;;;;;;;9.00;8.33;;;;;36.24;33.02;100582.09;5013255;28;45636;-73
2022/08/20 11:08:08;;;;;;;;;7.67;7.67;;;;;35.55;34.16;100565.53;5012272;28;45636;-73
2022/08/20 11:10:35;;;;;;;;;8.00;8.00;;;;;35.18;34.70;100578.28;5009809;28;45593;-73
2022/08/20 11:13:03;;;;;;;;;7.33;7.33;;;;;35.19;35.24;100580.00;5015445;28;46051;-76
2022/08/20 11:15:28;;;;;;;;;7.00;7.00;;;;;34.91;35.49;100570.25;5014854;28;45784;-73
2022/08/20 11:17:55;;;;;;;;;8.00;8.00;;;;;34.46;35.76;100578.78;5009234;28;45687;-77
2022/08/20 11:20:23;;;;;;;;;7.67;7.00;;;;;33.67;36.84;100577.78;5011018;28;46383;-76
2022/08/20 11:22:49;;;;;;;;;8.00;8.00;;;;;33.11;37.36;100552.53;5010349;28;45469;-77
2022/08/20 11:25:15;;;;;;;;;12.00;12.00;;;;;32.96;38.25;100560.63;5012531;28;45453;-76
2022/08/20 11:27:45;;;;;;;;;9.33;8.33;;;;;33.08;38.35;100559.00;5014043;28;45459;-77
2022/08/20 11:30:16;;;;;;;;;8.33;8.00;;;;;32.77;38.17;100557.34;5019282;28;45472;-74
2022/08/20 11:32:42;;;;;;;;;8.67;8.67;;;;;32.49;39.37;100550.94;5008507;28;45671;-75
2022/08/20 11:35:09;;;;;;;;;6.33;6.00;;;;;32.10;39.51;100545.16;5008154;28;45229;-75
2022/08/20 11:37:34;;;;;;;;;7.00;6.33;;;;;32.05;40.35;100533.78;5014880;28;45600;-75